Maria Desgagnes — VCWL — position and weather

sailwx.info

Track history (hours):
 
Tides and Currents Weather Stations Pressure Air Temp Water Temp Dewpoint Dewpoint Depression Visibility Wind Speed Wind Dir Waves Ship Positions

Maria Desgagnes

Last reported at 2014-Dec-16 00:00 UTC. Time now 2014-Dec-18 12:31 UTC.
Position N 53°24' W 060°12'.

Length 120 m; draft 7 m.

Type: Ship. MMSI: 316285000.

Wind from 270 at 7 knots

Barometer 1019.4 mb
Air temperature -8.7 ° C
Dewpoint -10.9 ° C
Water temperature 0.5 ° C

Date/timePositionNaut miles runAvg speedWind from/ knotsBaromVisibWave heightAir tempDewpointWater temp
2014-Dec-16 00:00N 53°24' W 060°12'1110.7 270 / 71019.4 -8.7-10.9 0.5
2014-Dec-15 23:00N 53°24' W 059°54'1312.5 270 / 131018.9 -7.3-10.2 0.6
2014-Dec-15 22:00N 53°36' W 059°48'9 9.3 290 / 171016.7 -6.0-8.6-0.1
2014-Dec-15 21:00N 53°42' W 059°36'1212.2 300 / 181016.4 -6.0-9.2-0.5
2014-Dec-15 20:00N 53°48' W 059°18'0 0.0 280 / 101015.5 -6.1-7.7-0.4
2014-Dec-15 19:00N 53°48' W 059°18'0 0.0 270 / 111014.2 -5.5-7.8
2014-Dec-15 18:00N 53°48' W 059°18'0 0.0 270 / 91013.0 -5.2-7.5-0.3
2014-Dec-15 17:00N 53°48' W 059°18'0 0.0 280 / 131012.3 -5.2-7.4-0.2
2014-Dec-15 16:00N 53°48' W 059°18'4 3.5 290 / 141011.8 -4.9-6.9-0.2
2014-Dec-15 15:00N 53°48' W 059°12'6 6.0 250 / 131010.7 -5.1-6.6-0.3
2014-Dec-15 14:00N 53°54' W 059°12'4 3.5 250 / 111010.6 -5.2-6.6-0.3
2014-Dec-15 13:00N 53°54' W 059°06'4 3.5 270 / 121009.5 -5.1-6.3-0.3
2014-Dec-15 12:00N 53°54' W 059°00'4 3.5 250 / 111008.4 -4.8-5.5-0.3
2014-Dec-15 11:00N 53°54' W 058°54'4 3.5 280 / 111007.6 -4.2-4.8-0.3
2014-Dec-15 10:00N 53°54' W 058°48'9 9.3 290 / 141005.3 -3.8-4.0-0.3
2014-Dec-15 09:00N 54°00' W 058°36'1413.9 280 / 151004.9 -3.4-3.6-0.4
2014-Dec-15 08:00N 54°12' W 058°24'1515.3 300 / 161002.3 -3.1-3.3-0.6
2014-Dec-15 07:00N 54°18' W 058°00'1110.5 310 / 211001.8 -1.9-2.1-0.8
2014-Dec-15 06:00N 54°18' W 057°42'1515.2 330 / 181000.6 -2.1-2.1-0.9
2014-Dec-15 05:00N 54°24' W 057°18'1414.0 340 / 27999.0 -2.3-2.2-0.9
2014-Dec-15 04:00N 54°24' W 056°54'1615.9 340 / 23998.9 -0.9-0.8-0.9
2014-Dec-15 03:00N 54°12' W 056°36'1212.1 270 / 9998.9 -0.2-0.1-0.8
2014-Dec-15 02:00N 54°06' W 056°18'1918.5 260 / 7999.4 -0.0 0.1-0.5
2014-Dec-15 01:00N 53°54' W 055°54'1413.9 170 / 3999.3 -0.9-0.7-0.9
2014-Dec-15 00:00N 53°42' W 055°42'1616.1 180 / 131000.0 -0.3-0.1-0.3
2014-Dec-14 23:00N 53°30' W 055°24'1312.5 190 / 141000.9 -0.2-0.0 0.1
2014-Dec-14 22:00N 53°18' W 055°18'1212.0 220 / 61001.2 -0.1-0.0-0.6
2014-Dec-14 21:00N 53°06' W 055°18'1818.0 190 / 101002.7 0.2 0.4-0.4
2014-Dec-14 20:00N 52°48' W 055°18'1212.0 190 / 91003.4 0.1 0.2 0.3
2014-Dec-14 19:00N 52°36' W 055°18'1818.0 200 / 101003.0 0.2 0.3-0.1
2014-Dec-14 18:00N 52°18' W 055°18'1312.6 210 / 81003.7 -0.3-0.1-0.3
2014-Dec-14 17:00N 52°06' W 055°24'1616.3 220 / 91004.4 -0.2-0.1-0.0
2014-Dec-14 16:00N 51°54' W 055°42'1414.1 160 / 71004.8 -0.1-0.0 0.2
2014-Dec-14 15:00N 51°42' W 055°54'1616.1 130 / 31006.3 0.4 0.5 0.8
2014-Dec-14 14:00N 51°36' W 056°18'1616.4 120 / 81006.6 0.5 0.7 0.8
2014-Dec-14 13:00N 51°24' W 056°36'1312.7 090 / 81007.3 0.8 0.9 1.8
2014-Dec-14 12:00N 51°18' W 056°54'1919.2 080 / 91007.2 0.9 1.0 1.7
2014-Dec-14 11:00N 51°06' W 057°18'1716.5 100 / 81006.6 1.5 1.6 2.8
2014-Dec-14 10:00N 50°54' W 057°36'1312.9 060 / 71006.7 2.1 2.2 3.0
2014-Dec-14 09:00N 50°48' W 057°54'1716.6 010 / 51006.0 3.1 3.3 3.5
2014-Dec-14 08:00N 50°36' W 058°12'1414.2 250 / 21006.1 3.6 3.7 3.6
2014-Dec-14 07:00N 50°24' W 058°24'1716.6 360 / 31006.7 3.5 3.6 3.6
2014-Dec-14 06:00N 50°12' W 058°42'10 9.8 310 / 21006.4 3.5 3.5 3.5
2014-Dec-14 05:00N 50°06' W 058°54'1716.7 260 / 11005.9 3.6 3.7 2.7
2014-Dec-14 04:00N 49°54' W 059°12'2019.6 170 / 71006.7 3.2 3.2 2.1
2014-Dec-14 03:00N 49°42' W 059°36'   140 / 11006.8 2.9 3.0 2.1
2014-Dec-11 22:00N 47°00' W 070°48'   060 / 281002.7 1.7 1.6 0.6
Track history (hours):
 
Tides and Currents Weather Stations Pressure Air Temp Water Temp Dewpoint Dewpoint Depression Visibility Wind Speed Wind Dir Waves Ship Positions

Maria Desgagnes

Last reported at 2014-Dec-16 00:00 UTC. Time now 2014-Dec-18 12:31 UTC.
Position N 53°24' W 060°12'.

Length 120 m; draft 7 m.

Type: Ship. MMSI: 316285000.

Wind from 270 at 7 knots

Barometer 1019.4 mb
Air temperature -8.7 ° C
Dewpoint -10.9 ° C
Water temperature 0.5 ° C

Date/timePositionNaut miles runAvg speedWind from/ knotsBaromVisibWave heightAir tempDewpointWater temp
2014-Dec-16 00:00N 53°24' W 060°12'1110.7 270 / 71019.4 -8.7-10.9 0.5
2014-Dec-15 23:00N 53°24' W 059°54'1312.5 270 / 131018.9 -7.3-10.2 0.6
2014-Dec-15 22:00N 53°36' W 059°48'9 9.3 290 / 171016.7 -6.0-8.6-0.1
2014-Dec-15 21:00N 53°42' W 059°36'1212.2 300 / 181016.4 -6.0-9.2-0.5
2014-Dec-15 20:00N 53°48' W 059°18'0 0.0 280 / 101015.5 -6.1-7.7-0.4
2014-Dec-15 19:00N 53°48' W 059°18'0 0.0 270 / 111014.2 -5.5-7.8
2014-Dec-15 18:00N 53°48' W 059°18'0 0.0 270 / 91013.0 -5.2-7.5-0.3
2014-Dec-15 17:00N 53°48' W 059°18'0 0.0 280 / 131012.3 -5.2-7.4-0.2
2014-Dec-15 16:00N 53°48' W 059°18'4 3.5 290 / 141011.8 -4.9-6.9-0.2
2014-Dec-15 15:00N 53°48' W 059°12'6 6.0 250 / 131010.7 -5.1-6.6-0.3
2014-Dec-15 14:00N 53°54' W 059°12'4 3.5 250 / 111010.6 -5.2-6.6-0.3
2014-Dec-15 13:00N 53°54' W 059°06'4 3.5 270 / 121009.5 -5.1-6.3-0.3
2014-Dec-15 12:00N 53°54' W 059°00'4 3.5 250 / 111008.4 -4.8-5.5-0.3
2014-Dec-15 11:00N 53°54' W 058°54'4 3.5 280 / 111007.6 -4.2-4.8-0.3
2014-Dec-15 10:00N 53°54' W 058°48'9 9.3 290 / 141005.3 -3.8-4.0-0.3
2014-Dec-15 09:00N 54°00' W 058°36'1413.9 280 / 151004.9 -3.4-3.6-0.4
2014-Dec-15 08:00N 54°12' W 058°24'1515.3 300 / 161002.3 -3.1-3.3-0.6
2014-Dec-15 07:00N 54°18' W 058°00'1110.5 310 / 211001.8 -1.9-2.1-0.8
2014-Dec-15 06:00N 54°18' W 057°42'1515.2 330 / 181000.6 -2.1-2.1-0.9
2014-Dec-15 05:00N 54°24' W 057°18'1414.0 340 / 27999.0 -2.3-2.2-0.9
2014-Dec-15 04:00N 54°24' W 056°54'1615.9 340 / 23998.9 -0.9-0.8-0.9
2014-Dec-15 03:00N 54°12' W 056°36'1212.1 270 / 9998.9 -0.2-0.1-0.8
2014-Dec-15 02:00N 54°06' W 056°18'1918.5 260 / 7999.4 -0.0 0.1-0.5
2014-Dec-15 01:00N 53°54' W 055°54'1413.9 170 / 3999.3 -0.9-0.7-0.9
2014-Dec-15 00:00N 53°42' W 055°42'1616.1 180 / 131000.0 -0.3-0.1-0.3
2014-Dec-14 23:00N 53°30' W 055°24'1312.5 190 / 141000.9 -0.2-0.0 0.1
2014-Dec-14 22:00N 53°18' W 055°18'1212.0 220 / 61001.2 -0.1-0.0-0.6
2014-Dec-14 21:00N 53°06' W 055°18'1818.0 190 / 101002.7 0.2 0.4-0.4
2014-Dec-14 20:00N 52°48' W 055°18'1212.0 190 / 91003.4 0.1 0.2 0.3
2014-Dec-14 19:00N 52°36' W 055°18'1818.0 200 / 101003.0 0.2 0.3-0.1
2014-Dec-14 18:00N 52°18' W 055°18'1312.6 210 / 81003.7 -0.3-0.1-0.3
2014-Dec-14 17:00N 52°06' W 055°24'1616.3 220 / 91004.4 -0.2-0.1-0.0
2014-Dec-14 16:00N 51°54' W 055°42'1414.1 160 / 71004.8 -0.1-0.0 0.2
2014-Dec-14 15:00N 51°42' W 055°54'1616.1 130 / 31006.3 0.4 0.5 0.8
2014-Dec-14 14:00N 51°36' W 056°18'1616.4 120 / 81006.6 0.5 0.7 0.8
2014-Dec-14 13:00N 51°24' W 056°36'1312.7 090 / 81007.3 0.8 0.9 1.8
2014-Dec-14 12:00N 51°18' W 056°54'1919.2 080 / 91007.2 0.9 1.0 1.7
2014-Dec-14 11:00N 51°06' W 057°18'1716.5 100 / 81006.6 1.5 1.6 2.8
2014-Dec-14 10:00N 50°54' W 057°36'1312.9 060 / 71006.7 2.1 2.2 3.0
2014-Dec-14 09:00N 50°48' W 057°54'1716.6 010 / 51006.0 3.1 3.3 3.5
2014-Dec-14 08:00N 50°36' W 058°12'1414.2 250 / 21006.1 3.6 3.7 3.6
2014-Dec-14 07:00N 50°24' W 058°24'1716.6 360 / 31006.7 3.5 3.6 3.6
2014-Dec-14 06:00N 50°12' W 058°42'10 9.8 310 / 21006.4 3.5 3.5 3.5
2014-Dec-14 05:00N 50°06' W 058°54'1716.7 260 / 11005.9 3.6 3.7 2.7
2014-Dec-14 04:00N 49°54' W 059°12'2019.6 170 / 71006.7 3.2 3.2 2.1
2014-Dec-14 03:00N 49°42' W 059°36'   140 / 11006.8 2.9 3.0 2.1
2014-Dec-11 22:00N 47°00' W 070°48'   060 / 281002.7 1.7 1.6 0.6

Dump ship's entire track history